EDW5 KTPA-LSZH
Flight info
| Callsign | EDW5 |
|---|---|
| Flight time | N/A |
| Altitude | 37000 |
| Route | CROWD8 CROWD DCT CRMIN DCT MZULO DCT HESTA DCT LENDS M203 SNAGY/M084F370 DCT FLUPS M204 SOORY/M084F390 DCT 43N050W 46N040W 48N030W 48N020W 48N015W DCT ETIKI DCT REGHI/N0488F390 DCT OZNOH/N0486F400 DCT BULOX DCT TABOV/N0486F410 DCT RESMI DCT TEPRI DCT POGZI DCT GELTA DCT MANAG DCT PEVIT DCT BLM |
| Aircraft | A359/H-SDE2E3GHIJ3J4J5LM1ORWXY/LB1D1 |
Departure
| Time | 2026-05-03 21:57 |
|---|---|
| Airport | Tampa International Airport (KTPA) |
Arrival
| Time | N/A |
|---|---|
| Airport | Zürich Airport (LSZH) |
| Time | Latitude | Longitude | Altitude | Speed | Heading |
|---|---|---|---|---|---|
| 2026-05-03 21:21 | 27.97546 | -82.53608 | 36 ft | 0 kts | 343° |
| 2026-05-03 21:33 | 27.97525 | -82.53601 | 32 ft | 4 kts | 354° |
| 2026-05-03 21:33 | 27.97501 | -82.53602 | 31 ft | 4 kts | 24° |
| 2026-05-03 21:34 | 27.97482 | -82.53615 | 29 ft | 4 kts | 44° |
| 2026-05-03 21:34 | 27.97467 | -82.53636 | 28 ft | 7 kts | 70° |
| 2026-05-03 21:34 | 27.97463 | -82.53660 | 30 ft | 7 kts | 103° |
| 2026-05-03 21:34 | 27.97472 | -82.53687 | 28 ft | 7 kts | 124° |
| 2026-05-03 21:35 | 27.97486 | -82.53710 | 30 ft | 7 kts | 124° |
| 2026-05-03 21:35 | 27.97501 | -82.53735 | 31 ft | 6 kts | 123° |
| 2026-05-03 21:35 | 27.97513 | -82.53755 | 30 ft | 6 kts | 123° |
| 2026-05-03 21:35 | 27.97528 | -82.53781 | 30 ft | 7 kts | 123° |
| 2026-05-03 21:36 | 27.97543 | -82.53807 | 28 ft | 7 kts | 123° |
| 2026-05-03 21:36 | 27.97557 | -82.53832 | 29 ft | 7 kts | 123° |
| 2026-05-03 21:36 | 27.97561 | -82.53838 | 28 ft | 5 kts | 123° |
| 2026-05-03 21:40 | 27.97557 | -82.53832 | 31 ft | 2 kts | 123° |
| 2026-05-03 21:41 | 27.97544 | -82.53809 | 32 ft | 5 kts | 124° |
| 2026-05-03 21:41 | 27.97519 | -82.53790 | 32 ft | 2 kts | 174° |
| 2026-05-03 21:41 | 27.97506 | -82.53792 | 32 ft | 3 kts | 188° |
| 2026-05-03 21:41 | 27.97478 | -82.53825 | 31 ft | 8 kts | 254° |
| 2026-05-03 21:42 | 27.97497 | -82.53899 | 29 ft | 12 kts | 297° |
| 2026-05-03 21:42 | 27.97519 | -82.53993 | 28 ft | 14 kts | 270° |
| 2026-05-03 21:42 | 27.97487 | -82.54073 | 28 ft | 10 kts | 193° |
| 2026-05-03 21:42 | 27.97415 | -82.54075 | 30 ft | 11 kts | 181° |
| 2026-05-03 21:43 | 27.97338 | -82.54077 | 30 ft | 11 kts | 181° |
| 2026-05-03 21:43 | 27.97255 | -82.54080 | 31 ft | 12 kts | 181° |
| 2026-05-03 21:43 | 27.97167 | -82.54082 | 32 ft | 13 kts | 182° |
| 2026-05-03 21:43 | 27.97077 | -82.54085 | 33 ft | 13 kts | 182° |
| 2026-05-03 21:44 | 27.96984 | -82.54088 | 34 ft | 14 kts | 181° |
| 2026-05-03 21:44 | 27.96918 | -82.54091 | 33 ft | 15 kts | 181° |
| 2026-05-03 21:44 | 27.96803 | -82.54095 | 30 ft | 18 kts | 181° |
| 2026-05-03 21:44 | 27.96671 | -82.54099 | 29 ft | 20 kts | 182° |
| 2026-05-03 21:45 | 27.96544 | -82.54104 | 27 ft | 17 kts | 182° |
| 2026-05-03 21:45 | 27.96474 | -82.54107 | 29 ft | 3 kts | 181° |
| 2026-05-03 21:45 | 27.96469 | -82.54107 | 29 ft | 0 kts | 181° |
| 2026-05-03 21:51 | 27.96464 | -82.54107 | 27 ft | 3 kts | 181° |
| 2026-05-03 21:51 | 27.96426 | -82.54108 | 27 ft | 8 kts | 181° |
| 2026-05-03 21:51 | 27.96364 | -82.54110 | 23 ft | 7 kts | 181° |
| 2026-05-03 21:51 | 27.96347 | -82.54120 | 21 ft | 2 kts | 230° |
| 2026-05-03 21:52 | 27.96346 | -82.54123 | 21 ft | 0 kts | 239° |
| 2026-05-03 21:54 | 27.96341 | -82.54159 | 21 ft | 9 kts | 266° |
| 2026-05-03 21:54 | 27.96347 | -82.54219 | 23 ft | 3 kts | 304° |
| 2026-05-03 21:54 | 27.96358 | -82.54226 | 22 ft | 1 kts | 335° |
| 2026-05-03 21:54 | 27.96383 | -82.54232 | 22 ft | 4 kts | 355° |
| 2026-05-03 21:55 | 27.96394 | -82.54231 | 24 ft | 0 kts | 2° |
| 2026-05-03 21:56 | 27.96594 | -82.54223 | 29 ft | 60 kts | 2° |
| 2026-05-03 21:56 | 27.97209 | -82.54199 | 31 ft | 116 kts | 2° |
| 2026-05-03 21:56 | 27.98183 | -82.54168 | 34 ft | 163 kts | 2° |
| 2026-05-03 21:56 | 27.99366 | -82.54143 | 505 ft | 169 kts | 2° |
| 2026-05-03 21:57 | 28.00506 | -82.54146 | 1312 ft | 160 kts | 0° |
| 2026-05-03 21:57 | 28.01633 | -82.54178 | 1788 ft | 170 kts | 360° |
| 2026-05-03 21:57 | 28.02875 | -82.54255 | 2108 ft | 187 kts | 358° |
| 2026-05-03 21:57 | 28.04226 | -82.54388 | 2490 ft | 203 kts | 356° |
| 2026-05-03 21:58 | 28.05707 | -82.54531 | 2758 ft | 225 kts | 359° |
| 2026-05-03 21:58 | 28.07363 | -82.54589 | 2988 ft | 249 kts | 1° |
| 2026-05-03 21:58 | 28.09164 | -82.54564 | 3297 ft | 268 kts | 3° |
| 2026-05-03 21:58 | 28.10980 | -82.54124 | 3996 ft | 265 kts | 26° |
| 2026-05-03 21:59 | 28.12407 | -82.52901 | 4976 ft | 254 kts | 51° |
| 2026-05-03 21:59 | 28.13213 | -82.51156 | 5792 ft | 253 kts | 70° |
| 2026-05-03 21:59 | 28.13676 | -82.49156 | 6143 ft | 273 kts | 82° |
| 2026-05-03 21:59 | 28.13478 | -82.46990 | 6616 ft | 284 kts | 111° |
| 2026-05-03 22:00 | 28.12313 | -82.45190 | 7230 ft | 286 kts | 144° |
| 2026-05-03 22:00 | 28.10590 | -82.44173 | 7896 ft | 284 kts | 171° |
| 2026-05-03 22:00 | 28.08641 | -82.43820 | 8649 ft | 285 kts | 176° |
| 2026-05-03 22:00 | 28.06677 | -82.43388 | 9376 ft | 292 kts | 167° |
| 2026-05-03 22:01 | 28.04804 | -82.42415 | 10087 ft | 301 kts | 154° |
| 2026-05-03 22:01 | 28.02993 | -82.41109 | 10480 ft | 318 kts | 151° |
| 2026-05-03 22:01 | 28.01113 | -82.39660 | 10793 ft | 335 kts | 150° |
| 2026-05-03 22:01 | 27.99151 | -82.38120 | 11098 ft | 351 kts | 150° |
| 2026-05-03 22:02 | 27.97102 | -82.36505 | 11394 ft | 366 kts | 149° |
| 2026-05-03 22:02 | 27.94983 | -82.34831 | 11763 ft | 378 kts | 149° |
| 2026-05-03 22:02 | 27.92811 | -82.33113 | 11958 ft | 382 kts | 149° |
| 2026-05-03 22:02 | 27.90632 | -82.31387 | 11980 ft | 383 kts | 149° |
| 2026-05-03 22:03 | 27.88452 | -82.29663 | 11981 ft | 382 kts | 149° |
| 2026-05-03 22:03 | 27.86270 | -82.27939 | 11979 ft | 382 kts | 149° |
| 2026-05-03 22:03 | 27.84086 | -82.26216 | 11986 ft | 382 kts | 149° |
| 2026-05-03 22:03 | 27.81904 | -82.24494 | 11992 ft | 382 kts | 149° |
| 2026-05-03 22:04 | 27.79723 | -82.22776 | 11995 ft | 382 kts | 149° |
| 2026-05-03 22:04 | 27.77541 | -82.21058 | 12000 ft | 382 kts | 149° |
| 2026-05-03 22:04 | 27.75405 | -82.19257 | 11991 ft | 386 kts | 142° |
| 2026-05-03 22:04 | 27.73706 | -82.16890 | 11997 ft | 394 kts | 122° |
| 2026-05-03 22:05 | 27.72608 | -82.14045 | 11997 ft | 397 kts | 113° |
| 2026-05-03 22:05 | 27.71656 | -82.11119 | 11995 ft | 398 kts | 113° |
| 2026-05-03 22:05 | 27.70706 | -82.08189 | 11993 ft | 398 kts | 113° |
| 2026-05-03 22:05 | 27.69744 | -82.05259 | 11994 ft | 397 kts | 113° |
| 2026-05-03 22:06 | 27.68789 | -82.02334 | 12008 ft | 398 kts | 112° |
| 2026-05-03 22:06 | 27.68153 | -81.99269 | 12278 ft | 406 kts | 98° |
| 2026-05-03 22:06 | 27.68226 | -81.96077 | 12944 ft | 410 kts | 82° |
| 2026-05-03 22:06 | 27.69059 | -81.93000 | 13562 ft | 413 kts | 64° |
| 2026-05-03 22:07 | 27.70520 | -81.90191 | 14104 ft | 416 kts | 55° |
| 2026-05-03 22:07 | 27.72188 | -81.87549 | 14540 ft | 421 kts | 52° |
| 2026-05-03 22:07 | 27.73996 | -81.84916 | 15001 ft | 426 kts | 50° |
| 2026-05-03 22:07 | 27.75853 | -81.82281 | 15455 ft | 430 kts | 50° |
| 2026-05-03 22:08 | 27.77723 | -81.79623 | 15903 ft | 435 kts | 50° |
| 2026-05-03 22:08 | 27.79598 | -81.76918 | 16359 ft | 440 kts | 50° |
| 2026-05-03 22:08 | 27.81477 | -81.74170 | 16821 ft | 444 kts | 50° |
| 2026-05-03 22:08 | 27.83363 | -81.71379 | 17241 ft | 449 kts | 51° |
| 2026-05-03 22:09 | 27.85257 | -81.68556 | 17673 ft | 453 kts | 51° |
| 2026-05-03 22:09 | 27.87163 | -81.65706 | 18149 ft | 457 kts | 50° |
| 2026-05-03 22:09 | 27.89086 | -81.62826 | 18547 ft | 461 kts | 50° |
| 2026-05-03 22:10 | 27.92981 | -81.56991 | 19347 ft | 468 kts | 50° |
| 2026-05-03 22:10 | 27.94948 | -81.54043 | 19773 ft | 471 kts | 50° |
| 2026-05-03 22:10 | 27.96936 | -81.51064 | 20202 ft | 475 kts | 50° |
| 2026-05-03 22:10 | 27.98934 | -81.48069 | 20636 ft | 478 kts | 51° |
| 2026-05-03 22:11 | 28.00915 | -81.45097 | 21055 ft | 481 kts | 51° |
| 2026-05-03 22:11 | 28.02937 | -81.42061 | 21485 ft | 484 kts | 51° |
| 2026-05-03 22:11 | 28.04972 | -81.39001 | 21889 ft | 488 kts | 51° |
| 2026-05-03 22:11 | 28.06834 | -81.35765 | 22296 ft | 493 kts | 59° |
| 2026-05-03 22:12 | 28.08497 | -81.32353 | 22726 ft | 497 kts | 61° |
| 2026-05-03 22:12 | 28.10097 | -81.28862 | 23129 ft | 500 kts | 62° |
| 2026-05-03 22:12 | 28.11665 | -81.25322 | 23547 ft | 504 kts | 63° |
| 2026-05-03 22:12 | 28.13225 | -81.21742 | 23919 ft | 508 kts | 63° |
| 2026-05-03 22:13 | 28.14793 | -81.18136 | 24293 ft | 511 kts | 63° |
| 2026-05-03 22:13 | 28.16372 | -81.14510 | 24667 ft | 514 kts | 63° |
| 2026-05-03 22:13 | 28.17962 | -81.10874 | 25042 ft | 517 kts | 63° |
| 2026-05-03 22:13 | 28.19566 | -81.07216 | 25435 ft | 520 kts | 63° |
| 2026-05-03 22:14 | 28.21182 | -81.03536 | 25833 ft | 523 kts | 63° |
| 2026-05-03 22:14 | 28.22808 | -80.99833 | 26223 ft | 526 kts | 63° |
| 2026-05-03 22:14 | 28.24440 | -80.96115 | 26592 ft | 529 kts | 63° |
| 2026-05-03 22:14 | 28.26086 | -80.92364 | 26975 ft | 532 kts | 63° |
| 2026-05-03 22:15 | 28.27738 | -80.88592 | 27316 ft | 535 kts | 63° |
| 2026-05-03 22:15 | 28.29399 | -80.84796 | 27682 ft | 538 kts | 63° |
| 2026-05-03 22:15 | 28.31067 | -80.80980 | 28031 ft | 542 kts | 63° |
| 2026-05-03 22:15 | 28.32747 | -80.77134 | 28388 ft | 545 kts | 64° |
| 2026-05-03 22:16 | 28.34434 | -80.73265 | 28725 ft | 548 kts | 64° |
| 2026-05-03 22:16 | 28.36131 | -80.69372 | 29092 ft | 551 kts | 64° |
| 2026-05-03 22:16 | 28.37810 | -80.65515 | 29423 ft | 554 kts | 64° |
| 2026-05-03 22:16 | 28.39522 | -80.61579 | 29764 ft | 557 kts | 64° |
| 2026-05-03 22:17 | 28.41241 | -80.57624 | 30075 ft | 560 kts | 64° |
| 2026-05-03 22:17 | 28.42967 | -80.53646 | 30341 ft | 563 kts | 64° |
| 2026-05-03 22:17 | 28.44702 | -80.49647 | 30565 ft | 566 kts | 64° |
| 2026-05-03 22:17 | 28.46450 | -80.45612 | 30796 ft | 569 kts | 64° |
| 2026-05-03 22:18 | 28.48201 | -80.41569 | 31019 ft | 573 kts | 64° |
| 2026-05-03 22:18 | 28.49965 | -80.37489 | 31251 ft | 575 kts | 64° |
| 2026-05-03 22:18 | 28.51736 | -80.33390 | 31485 ft | 578 kts | 64° |
| 2026-05-03 22:18 | 28.53513 | -80.29272 | 31696 ft | 581 kts | 64° |
| 2026-05-03 22:19 | 28.55258 | -80.25115 | 31980 ft | 582 kts | 65° |
| 2026-05-03 22:19 | 28.56888 | -80.20902 | 32306 ft | 582 kts | 67° |
| 2026-05-03 22:19 | 28.58458 | -80.16658 | 32600 ft | 583 kts | 67° |
| 2026-05-03 22:19 | 28.60020 | -80.12382 | 32881 ft | 584 kts | 67° |
| 2026-05-03 22:20 | 28.61583 | -80.08116 | 33046 ft | 585 kts | 67° |
| 2026-05-03 22:20 | 28.64751 | -79.99598 | 33069 ft | 584 kts | 66° |
| 2026-05-03 22:21 | 28.67954 | -79.91091 | 33071 ft | 584 kts | 66° |
| 2026-05-03 22:21 | 28.71139 | -79.82642 | 33072 ft | 583 kts | 66° |
| 2026-05-03 22:22 | 28.74329 | -79.74154 | 33125 ft | 583 kts | 66° |
| 2026-05-03 22:22 | 28.75920 | -79.69907 | 33408 ft | 583 kts | 66° |
| 2026-05-03 22:22 | 28.77514 | -79.65645 | 33722 ft | 583 kts | 66° |
| 2026-05-03 22:22 | 28.79101 | -79.61396 | 33998 ft | 584 kts | 66° |
| 2026-05-03 22:23 | 28.80798 | -79.57196 | 34215 ft | 583 kts | 59° |
| 2026-05-03 22:23 | 28.82933 | -79.53272 | 34476 ft | 581 kts | 54° |
| 2026-05-03 22:23 | 28.85204 | -79.49463 | 34710 ft | 581 kts | 52° |
| 2026-05-03 22:23 | 28.87535 | -79.45696 | 34930 ft | 581 kts | 52° |
| 2026-05-03 22:24 | 28.89901 | -79.41946 | 35149 ft | 581 kts | 51° |
| 2026-05-03 22:24 | 28.92274 | -79.38210 | 35393 ft | 581 kts | 51° |
| 2026-05-03 22:24 | 28.94651 | -79.34464 | 35617 ft | 582 kts | 51° |
| 2026-05-03 22:24 | 28.97017 | -79.30717 | 35807 ft | 582 kts | 51° |
| 2026-05-03 22:25 | 28.99378 | -79.26963 | 36029 ft | 582 kts | 52° |
| 2026-05-03 22:25 | 29.01738 | -79.23194 | 36263 ft | 582 kts | 52° |
| 2026-05-03 22:25 | 29.04087 | -79.19434 | 36467 ft | 583 kts | 52° |
| 2026-05-03 22:25 | 29.06443 | -79.15657 | 36662 ft | 583 kts | 52° |
| 2026-05-03 22:26 | 29.08795 | -79.11882 | 36849 ft | 583 kts | 52° |
| 2026-05-03 22:26 | 29.11149 | -79.08101 | 37044 ft | 584 kts | 52° |
| 2026-05-03 22:26 | 29.13513 | -79.04301 | 37086 ft | 587 kts | 52° |
| 2026-05-03 22:27 | 29.17452 | -78.97966 | 37339 ft | 587 kts | 52° |
| 2026-05-03 22:27 | 29.19816 | -78.94155 | 37623 ft | 585 kts | 52° |
| 2026-05-03 22:27 | 29.22169 | -78.90362 | 37815 ft | 585 kts | 52° |
| 2026-05-03 22:27 | 29.25289 | -78.85327 | 38018 ft | 586 kts | 52° |
| 2026-05-03 22:28 | 29.27646 | -78.81520 | 38179 ft | 586 kts | 52° |
| 2026-05-03 22:28 | 29.30001 | -78.77712 | 38357 ft | 586 kts | 52° |
| 2026-05-03 22:28 | 29.31592 | -78.75139 | 38467 ft | 586 kts | 52° |
| 2026-05-03 22:28 | 29.33916 | -78.71376 | 38605 ft | 586 kts | 52° |
| 2026-05-03 22:29 | 29.36072 | -78.67405 | 38696 ft | 590 kts | 62° |
| 2026-05-03 22:29 | 29.37713 | -78.63096 | 38864 ft | 589 kts | 69° |
| 2026-05-03 22:29 | 29.39149 | -78.58706 | 38989 ft | 588 kts | 71° |
| 2026-05-03 22:29 | 29.40184 | -78.54177 | 39076 ft | 586 kts | 82° |
| 2026-05-03 22:30 | 29.40891 | -78.49566 | 39090 ft | 588 kts | 83° |
| 2026-05-03 22:30 | 29.42082 | -78.40261 | 39092 ft | 589 kts | 85° |
| 2026-05-03 22:31 | 29.43201 | -78.30948 | 39093 ft | 589 kts | 85° |
| 2026-05-03 22:31 | 29.44350 | -78.21631 | 39089 ft | 589 kts | 84° |
| 2026-05-03 22:32 | 29.45520 | -78.12334 | 39089 ft | 588 kts | 84° |
| 2026-05-03 22:32 | 29.46690 | -78.03039 | 39090 ft | 588 kts | 84° |
| 2026-05-03 22:33 | 29.47843 | -77.93812 | 39091 ft | 588 kts | 84° |
| 2026-05-03 22:33 | 29.48994 | -77.84523 | 39092 ft | 587 kts | 84° |
| 2026-05-03 22:34 | 29.50137 | -77.75247 | 39091 ft | 587 kts | 84° |
| 2026-05-03 22:34 | 29.51274 | -77.65960 | 39095 ft | 586 kts | 84° |
| 2026-05-03 22:35 | 29.52403 | -77.56682 | 39092 ft | 586 kts | 84° |
| 2026-05-03 22:35 | 29.53525 | -77.47415 | 39099 ft | 585 kts | 84° |
| 2026-05-03 22:36 | 29.54639 | -77.38160 | 39093 ft | 585 kts | 84° |
| 2026-05-03 22:36 | 29.55737 | -77.28975 | 39098 ft | 584 kts | 84° |
| 2026-05-03 22:37 | 29.56844 | -77.19669 | 39097 ft | 584 kts | 84° |
| 2026-05-03 22:37 | 29.57929 | -77.10480 | 39100 ft | 583 kts | 84° |
| 2026-05-03 22:38 | 29.59013 | -77.01251 | 39094 ft | 583 kts | 84° |
| 2026-05-03 22:38 | 29.60092 | -76.92014 | 39101 ft | 582 kts | 84° |
| 2026-05-03 22:39 | 29.62003 | -76.82970 | 39102 ft | 584 kts | 70° |
| 2026-05-03 22:39 | 29.64876 | -76.74245 | 39100 ft | 584 kts | 68° |
| 2026-05-03 22:40 | 29.67914 | -76.65586 | 39103 ft | 584 kts | 67° |
| 2026-05-03 22:40 | 29.70952 | -76.56924 | 39106 ft | 583 kts | 67° |
| 2026-05-03 22:41 | 29.73936 | -76.48301 | 39113 ft | 583 kts | 68° |
| 2026-05-03 22:41 | 29.76934 | -76.39572 | 39110 ft | 583 kts | 68° |